sensor_id;sensor_type;location;lat;lon;timestamp;temperature;humidity
37594;DHT22;23441;50.856;6.076;2023-03-01T00:01:29;-1.30;99.90
37594;DHT22;23441;50.856;6.076;2023-03-01T00:03:56;-1.40;99.90
37594;DHT22;23441;50.856;6.076;2023-03-01T00:06:23;-1.40;99.90
37594;DHT22;23441;50.856;6.076;2023-03-01T00:08:49;-1.40;99.90
37594;DHT22;23441;50.856;6.076;2023-03-01T00:11:19;-1.40;99.90
37594;DHT22;23441;50.856;6.076;2023-03-01T00:13:46;-1.50;99.90
37594;DHT22;23441;50.856;6.076;2023-03-01T00:16:21;-1.50;99.90
37594;DHT22;23441;50.856;6.076;2023-03-01T00:18:47;-1.50;99.90
37594;DHT22;23441;50.856;6.076;2023-03-01T00:21:13;-1.50;99.90
37594;DHT22;23441;50.856;6.076;2023-03-01T00:23:39;-1.60;99.90
37594;DHT22;23441;50.856;6.076;2023-03-01T00:26:07;-1.70;99.90
37594;DHT22;23441;50.856;6.076;2023-03-01T00:28:33;-1.70;99.90
37594;DHT22;23441;50.856;6.076;2023-03-01T00:31:08;-1.60;99.90
37594;DHT22;23441;50.856;6.076;2023-03-01T00:33:33;-1.50;99.90
37594;DHT22;23441;50.856;6.076;2023-03-01T00:35:59;-1.50;99.90
37594;DHT22;23441;50.856;6.076;2023-03-01T00:38:25;-1.50;99.90
37594;DHT22;23441;50.856;6.076;2023-03-01T00:40:51;-1.40;99.90
37594;DHT22;23441;50.856;6.076;2023-03-01T00:43:17;-1.40;99.90
37594;DHT22;23441;50.856;6.076;2023-03-01T00:45:43;-1.40;99.90
37594;DHT22;23441;50.856;6.076;2023-03-01T00:48:09;-1.40;99.90
37594;DHT22;23441;50.856;6.076;2023-03-01T00:50:34;-1.50;99.90
37594;DHT22;23441;50.856;6.076;2023-03-01T00:53:00;-1.50;99.90
37594;DHT22;23441;50.856;6.076;2023-03-01T00:55:26;-1.50;99.90
37594;DHT22;23441;50.856;6.076;2023-03-01T00:57:51;-1.50;99.90
37594;DHT22;23441;50.856;6.076;2023-03-01T01:00:18;-1.50;99.90
37594;DHT22;23441;50.856;6.076;2023-03-01T01:02:44;-1.60;99.90
37594;DHT22;23441;50.856;6.076;2023-03-01T01:05:10;-1.60;99.90
37594;DHT22;23441;50.856;6.076;2023-03-01T01:07:36;-1.60;99.90
37594;DHT22;23441;50.856;6.076;2023-03-01T01:10:03;-1.60;99.90
37594;DHT22;23441;50.856;6.076;2023-03-01T01:12:28;-1.70;99.90
37594;DHT22;23441;50.856;6.076;2023-03-01T01:14:54;-1.70;99.90
37594;DHT22;23441;50.856;6.076;2023-03-01T01:17:20;-1.70;99.90
37594;DHT22;23441;50.856;6.076;2023-03-01T01:19:45;-1.70;99.90
37594;DHT22;23441;50.856;6.076;2023-03-01T01:22:11;-1.60;99.90
37594;DHT22;23441;50.856;6.076;2023-03-01T01:24:37;-1.70;99.90
37594;DHT22;23441;50.856;6.076;2023-03-01T01:27:02;-1.70;99.90
37594;DHT22;23441;50.856;6.076;2023-03-01T01:29:28;-1.70;99.90
37594;DHT22;23441;50.856;6.076;2023-03-01T01:31:53;-1.70;99.90
37594;DHT22;23441;50.856;6.076;2023-03-01T01:34:20;-1.80;99.90
37594;DHT22;23441;50.856;6.076;2023-03-01T01:36:50;-1.80;99.90
37594;DHT22;23441;50.856;6.076;2023-03-01T01:39:16;-1.80;99.90
37594;DHT22;23441;50.856;6.076;2023-03-01T01:41:42;-1.80;99.90
37594;DHT22;23441;50.856;6.076;2023-03-01T01:46:43;-1.90;99.90
37594;DHT22;23441;50.856;6.076;2023-03-01T01:49:17;-1.90;99.90
37594;DHT22;23441;50.856;6.076;2023-03-01T01:51:45;-2.00;99.90
37594;DHT22;23441;50.856;6.076;2023-03-01T01:54:29;-2.00;99.90
37594;DHT22;23441;50.856;6.076;2023-03-01T01:57:00;-2.10;99.90
37594;DHT22;23441;50.856;6.076;2023-03-01T01:59:28;-2.00;99.90
37594;DHT22;23441;50.856;6.076;2023-03-01T02:01:55;-2.00;99.90
37594;DHT22;23441;50.856;6.076;2023-03-01T02:04:22;-2.10;99.90
37594;DHT22;23441;50.856;6.076;2023-03-01T02:07:11;-2.10;99.90
37594;DHT22;23441;50.856;6.076;2023-03-01T02:09:39;-2.10;99.90
37594;DHT22;23441;50.856;6.076;2023-03-01T02:12:06;-2.20;99.90
37594;DHT22;23441;50.856;6.076;2023-03-01T02:14:32;-2.30;99.90
37594;DHT22;23441;50.856;6.076;2023-03-01T02:16:58;-2.30;99.90
37594;DHT22;23441;50.856;6.076;2023-03-01T02:19:42;-2.30;99.90
37594;DHT22;23441;50.856;6.076;2023-03-01T02:27:40;-2.40;99.90
37594;DHT22;23441;50.856;6.076;2023-03-01T02:30:09;-2.50;99.90
37594;DHT22;23441;50.856;6.076;2023-03-01T02:32:40;-2.50;99.90
37594;DHT22;23441;50.856;6.076;2023-03-01T02:35:09;-2.50;99.90
37594;DHT22;23441;50.856;6.076;2023-03-01T02:37:35;-2.60;99.90
37594;DHT22;23441;50.856;6.076;2023-03-01T02:40:04;-2.70;99.90
37594;DHT22;23441;50.856;6.076;2023-03-01T02:42:35;-2.70;99.90
37594;DHT22;23441;50.856;6.076;2023-03-01T02:45:02;-2.70;99.90
37594;DHT22;23441;50.856;6.076;2023-03-01T02:47:28;-2.80;99.90
37594;DHT22;23441;50.856;6.076;2023-03-01T02:49:54;-2.80;99.90
37594;DHT22;23441;50.856;6.076;2023-03-01T02:55:03;-2.80;99.90
37594;DHT22;23441;50.856;6.076;2023-03-01T02:57:33;-2.90;99.90
37594;DHT22;23441;50.856;6.076;2023-03-01T03:00:03;-2.90;99.90
37594;DHT22;23441;50.856;6.076;2023-03-01T03:02:33;-2.90;99.90
37594;DHT22;23441;50.856;6.076;2023-03-01T03:07:38;-2.90;99.90
37594;DHT22;23441;50.856;6.076;2023-03-01T03:10:06;-2.90;99.90
37594;DHT22;23441;50.856;6.076;2023-03-01T03:12:32;-2.80;99.90
37594;DHT22;23441;50.856;6.076;2023-03-01T03:14:58;-2.70;99.90
37594;DHT22;23441;50.856;6.076;2023-03-01T03:17:24;-2.60;99.90
37594;DHT22;23441;50.856;6.076;2023-03-01T03:19:49;-2.50;99.90
37594;DHT22;23441;50.856;6.076;2023-03-01T03:22:15;-2.50;99.90
37594;DHT22;23441;50.856;6.076;2023-03-01T03:24:40;-2.50;99.90
37594;DHT22;23441;50.856;6.076;2023-03-01T03:27:07;-2.60;99.90
37594;DHT22;23441;50.856;6.076;2023-03-01T03:29:33;-2.70;99.90
37594;DHT22;23441;50.856;6.076;2023-03-01T03:31:59;-2.60;99.90
37594;DHT22;23441;50.856;6.076;2023-03-01T03:34:25;-2.60;99.90
37594;DHT22;23441;50.856;6.076;2023-03-01T03:36:54;-2.60;99.90
37594;DHT22;23441;50.856;6.076;2023-03-01T03:39:25;-2.70;99.90
37594;DHT22;23441;50.856;6.076;2023-03-01T03:41:52;-2.70;99.90
37594;DHT22;23441;50.856;6.076;2023-03-01T03:44:19;-2.70;99.90
37594;DHT22;23441;50.856;6.076;2023-03-01T03:46:45;-2.70;99.90
37594;DHT22;23441;50.856;6.076;2023-03-01T03:49:11;-2.70;99.90
37594;DHT22;23441;50.856;6.076;2023-03-01T03:51:36;-2.80;99.90
37594;DHT22;23441;50.856;6.076;2023-03-01T03:54:02;-2.90;99.90
37594;DHT22;23441;50.856;6.076;2023-03-01T03:56:28;-2.90;99.90
37594;DHT22;23441;50.856;6.076;2023-03-01T03:58:53;-2.90;99.90
37594;DHT22;23441;50.856;6.076;2023-03-01T04:01:19;-2.90;99.90
37594;DHT22;23441;50.856;6.076;2023-03-01T04:03:44;-3.00;99.90
37594;DHT22;23441;50.856;6.076;2023-03-01T04:06:14;-3.00;99.90
37594;DHT22;23441;50.856;6.076;2023-03-01T04:08:40;-3.00;99.90
37594;DHT22;23441;50.856;6.076;2023-03-01T04:11:06;-3.00;99.90
37594;DHT22;23441;50.856;6.076;2023-03-01T04:13:51;-3.00;99.90
37594;DHT22;23441;50.856;6.076;2023-03-01T04:16:18;-2.90;99.90
37594;DHT22;23441;50.856;6.076;2023-03-01T04:18:44;-2.90;99.90
37594;DHT22;23441;50.856;6.076;2023-03-01T04:21:09;-2.90;99.90
37594;DHT22;23441;50.856;6.076;2023-03-01T04:23:37;-2.90;99.90
37594;DHT22;23441;50.856;6.076;2023-03-01T04:26:03;-2.90;99.90
37594;DHT22;23441;50.856;6.076;2023-03-01T04:28:40;-2.90;99.90
37594;DHT22;23441;50.856;6.076;2023-03-01T04:31:18;-3.00;99.90
37594;DHT22;23441;50.856;6.076;2023-03-01T04:33:54;-3.00;99.90
37594;DHT22;23441;50.856;6.076;2023-03-01T04:36:26;-3.00;99.90
37594;DHT22;23441;50.856;6.076;2023-03-01T04:38:53;-3.10;99.90
37594;DHT22;23441;50.856;6.076;2023-03-01T04:41:20;-3.10;99.90
37594;DHT22;23441;50.856;6.076;2023-03-01T04:43:46;-3.00;99.90
37594;DHT22;23441;50.856;6.076;2023-03-01T04:46:15;-3.00;99.90
37594;DHT22;23441;50.856;6.076;2023-03-01T04:48:42;-3.00;99.90
37594;DHT22;23441;50.856;6.076;2023-03-01T04:51:08;-3.00;99.90
37594;DHT22;23441;50.856;6.076;2023-03-01T04:53:34;-3.00;99.90
37594;DHT22;23441;50.856;6.076;2023-03-01T04:56:02;-3.00;99.90
37594;DHT22;23441;50.856;6.076;2023-03-01T04:58:28;-3.00;99.90
37594;DHT22;23441;50.856;6.076;2023-03-01T05:00:55;-3.10;99.90
37594;DHT22;23441;50.856;6.076;2023-03-01T05:03:20;-3.10;99.90
37594;DHT22;23441;50.856;6.076;2023-03-01T05:05:49;-3.10;99.90
37594;DHT22;23441;50.856;6.076;2023-03-01T05:08:15;-3.10;99.90
37594;DHT22;23441;50.856;6.076;2023-03-01T05:10:50;-3.20;99.90
37594;DHT22;23441;50.856;6.076;2023-03-01T05:13:16;-3.30;99.90
37594;DHT22;23441;50.856;6.076;2023-03-01T05:16:08;-3.40;99.90
37594;DHT22;23441;50.856;6.076;2023-03-01T05:18:36;-3.50;99.90
37594;DHT22;23441;50.856;6.076;2023-03-01T05:21:16;-3.50;99.90
37594;DHT22;23441;50.856;6.076;2023-03-01T05:23:42;-3.40;99.90
37594;DHT22;23441;50.856;6.076;2023-03-01T05:26:08;-3.30;99.90
37594;DHT22;23441;50.856;6.076;2023-03-01T05:28:34;-3.30;99.90
37594;DHT22;23441;50.856;6.076;2023-03-01T05:31:00;-3.30;99.90
37594;DHT22;23441;50.856;6.076;2023-03-01T05:33:27;-3.30;99.90
37594;DHT22;23441;50.856;6.076;2023-03-01T05:35:53;-3.30;99.90
37594;DHT22;23441;50.856;6.076;2023-03-01T05:38:20;-3.30;99.90
37594;DHT22;23441;50.856;6.076;2023-03-01T05:40:47;-3.30;99.90
37594;DHT22;23441;50.856;6.076;2023-03-01T05:43:15;-3.30;99.90
37594;DHT22;23441;50.856;6.076;2023-03-01T05:45:42;-3.40;99.90
37594;DHT22;23441;50.856;6.076;2023-03-01T05:48:09;-3.50;99.90
37594;DHT22;23441;50.856;6.076;2023-03-01T05:50:38;-3.50;99.90
37594;DHT22;23441;50.856;6.076;2023-03-01T05:53:11;-3.50;99.90
37594;DHT22;23441;50.856;6.076;2023-03-01T05:55:37;-3.50;99.90
37594;DHT22;23441;50.856;6.076;2023-03-01T05:58:06;-3.50;99.90
37594;DHT22;23441;50.856;6.076;2023-03-01T06:00:32;-3.40;99.90
37594;DHT22;23441;50.856;6.076;2023-03-01T06:02:59;-3.40;99.90
37594;DHT22;23441;50.856;6.076;2023-03-01T06:05:25;-3.40;99.90
37594;DHT22;23441;50.856;6.076;2023-03-01T06:07:51;-3.40;99.90
37594;DHT22;23441;50.856;6.076;2023-03-01T06:10:19;-3.40;99.90
37594;DHT22;23441;50.856;6.076;2023-03-01T06:12:45;-3.40;99.90
37594;DHT22;23441;50.856;6.076;2023-03-01T06:15:13;-3.50;99.90
37594;DHT22;23441;50.856;6.076;2023-03-01T06:17:40;-3.50;99.90
37594;DHT22;23441;50.856;6.076;2023-03-01T06:20:16;-3.50;99.90
37594;DHT22;23441;50.856;6.076;2023-03-01T06:22:42;-3.60;99.90
37594;DHT22;23441;50.856;6.076;2023-03-01T06:25:10;-3.60;99.90
37594;DHT22;23441;50.856;6.076;2023-03-01T06:27:36;-3.70;99.90
37594;DHT22;23441;50.856;6.076;2023-03-01T06:30:02;-3.70;99.90
37594;DHT22;23441;50.856;6.076;2023-03-01T06:32:28;-3.70;99.90
37594;DHT22;23441;50.856;6.076;2023-03-01T06:34:53;-3.80;99.90
37594;DHT22;23441;50.856;6.076;2023-03-01T06:37:19;-3.80;99.90
37594;DHT22;23441;50.856;6.076;2023-03-01T06:39:45;-3.80;99.90
37594;DHT22;23441;50.856;6.076;2023-03-01T06:42:10;-3.80;99.90
37594;DHT22;23441;50.856;6.076;2023-03-01T06:44:36;-3.70;99.90
37594;DHT22;23441;50.856;6.076;2023-03-01T06:47:03;-3.70;99.90
37594;DHT22;23441;50.856;6.076;2023-03-01T06:49:28;-3.70;99.90
37594;DHT22;23441;50.856;6.076;2023-03-01T06:51:54;-3.70;99.90
37594;DHT22;23441;50.856;6.076;2023-03-01T06:54:20;-3.70;99.90
37594;DHT22;23441;50.856;6.076;2023-03-01T06:56:48;-3.70;99.90
37594;DHT22;23441;50.856;6.076;2023-03-01T06:59:14;-3.60;99.90
37594;DHT22;23441;50.856;6.076;2023-03-01T07:01:40;-3.20;99.90
37594;DHT22;23441;50.856;6.076;2023-03-01T07:04:05;-2.60;99.90
37594;DHT22;23441;50.856;6.076;2023-03-01T07:06:31;-2.10;99.90
37594;DHT22;23441;50.856;6.076;2023-03-01T07:08:57;-1.80;99.90
37594;DHT22;23441;50.856;6.076;2023-03-01T07:11:22;-1.60;99.90
37594;DHT22;23441;50.856;6.076;2023-03-01T07:13:48;-1.40;99.90
37594;DHT22;23441;50.856;6.076;2023-03-01T07:16:14;-1.30;99.90
37594;DHT22;23441;50.856;6.076;2023-03-01T07:18:40;-1.30;99.90
37594;DHT22;23441;50.856;6.076;2023-03-01T07:21:07;-1.40;99.90
37594;DHT22;23441;50.856;6.076;2023-03-01T07:23:33;-1.50;99.90
37594;DHT22;23441;50.856;6.076;2023-03-01T07:25:58;-1.50;99.90
37594;DHT22;23441;50.856;6.076;2023-03-01T07:28:26;-1.60;99.90
37594;DHT22;23441;50.856;6.076;2023-03-01T07:30:52;-1.70;99.90
37594;DHT22;23441;50.856;6.076;2023-03-01T07:33:17;-1.80;99.90
37594;DHT22;23441;50.856;6.076;2023-03-01T07:35:43;-1.90;99.90
37594;DHT22;23441;50.856;6.076;2023-03-01T07:38:09;-1.80;99.90
37594;DHT22;23441;50.856;6.076;2023-03-01T07:40:34;-1.70;99.90
37594;DHT22;23441;50.856;6.076;2023-03-01T07:43:00;-1.50;99.90
37594;DHT22;23441;50.856;6.076;2023-03-01T07:45:27;-1.30;99.90
37594;DHT22;23441;50.856;6.076;2023-03-01T07:47:54;-1.30;99.90
37594;DHT22;23441;50.856;6.076;2023-03-01T07:50:21;-1.20;99.90
37594;DHT22;23441;50.856;6.076;2023-03-01T07:52:47;-1.00;99.90
37594;DHT22;23441;50.856;6.076;2023-03-01T07:55:14;-0.10;99.90
37594;DHT22;23441;50.856;6.076;2023-03-01T07:57:40;0.90;99.90
37594;DHT22;23441;50.856;6.076;2023-03-01T08:00:07;1.80;99.90
37594;DHT22;23441;50.856;6.076;2023-03-01T08:02:33;2.40;99.90
37594;DHT22;23441;50.856;6.076;2023-03-01T08:04:58;2.50;99.90
37594;DHT22;23441;50.856;6.076;2023-03-01T08:07:24;2.10;99.90
37594;DHT22;23441;50.856;6.076;2023-03-01T08:09:49;1.70;99.90
37594;DHT22;23441;50.856;6.076;2023-03-01T08:12:15;1.70;99.90
37594;DHT22;23441;50.856;6.076;2023-03-01T08:14:42;1.40;99.90
37594;DHT22;23441;50.856;6.076;2023-03-01T08:17:08;1.20;99.90
37594;DHT22;23441;50.856;6.076;2023-03-01T08:19:33;0.80;99.90
37594;DHT22;23441;50.856;6.076;2023-03-01T08:22:01;0.50;99.90
37594;DHT22;23441;50.856;6.076;2023-03-01T08:24:27;0.20;99.90
37594;DHT22;23441;50.856;6.076;2023-03-01T08:26:53;0.00;99.90
37594;DHT22;23441;50.856;6.076;2023-03-01T08:29:20;0.00;99.90
37594;DHT22;23441;50.856;6.076;2023-03-01T08:31:46;0.10;99.90
37594;DHT22;23441;50.856;6.076;2023-03-01T08:34:13;0.20;99.90
37594;DHT22;23441;50.856;6.076;2023-03-01T08:36:41;0.30;99.90
37594;DHT22;23441;50.856;6.076;2023-03-01T08:39:09;0.30;99.90
37594;DHT22;23441;50.856;6.076;2023-03-01T08:41:36;0.30;99.90
37594;DHT22;23441;50.856;6.076;2023-03-01T08:44:02;0.30;99.90
37594;DHT22;23441;50.856;6.076;2023-03-01T08:46:29;0.30;99.90
37594;DHT22;23441;50.856;6.076;2023-03-01T08:48:55;0.30;99.90
37594;DHT22;23441;50.856;6.076;2023-03-01T08:51:22;0.50;99.90
37594;DHT22;23441;50.856;6.076;2023-03-01T08:53:48;0.60;99.90
37594;DHT22;23441;50.856;6.076;2023-03-01T08:56:14;0.40;99.90
37594;DHT22;23441;50.856;6.076;2023-03-01T08:58:44;0.40;99.90
37594;DHT22;23441;50.856;6.076;2023-03-01T09:01:11;0.40;99.90
37594;DHT22;23441;50.856;6.076;2023-03-01T09:03:37;0.40;99.90
37594;DHT22;23441;50.856;6.076;2023-03-01T09:06:04;0.50;99.90
37594;DHT22;23441;50.856;6.076;2023-03-01T09:08:30;0.60;99.90
37594;DHT22;23441;50.856;6.076;2023-03-01T09:10:56;0.60;99.90
37594;DHT22;23441;50.856;6.076;2023-03-01T09:13:22;0.60;99.90
37594;DHT22;23441;50.856;6.076;2023-03-01T09:15:51;0.60;99.90
37594;DHT22;23441;50.856;6.076;2023-03-01T09:18:17;0.60;99.90
37594;DHT22;23441;50.856;6.076;2023-03-01T09:20:43;0.70;99.90
37594;DHT22;23441;50.856;6.076;2023-03-01T09:23:08;0.80;99.90
37594;DHT22;23441;50.856;6.076;2023-03-01T09:25:34;0.90;99.90
37594;DHT22;23441;50.856;6.076;2023-03-01T09:28:00;0.90;99.90
37594;DHT22;23441;50.856;6.076;2023-03-01T09:30:26;1.00;99.90
37594;DHT22;23441;50.856;6.076;2023-03-01T09:32:52;1.10;99.90
37594;DHT22;23441;50.856;6.076;2023-03-01T09:35:17;1.20;99.90
37594;DHT22;23441;50.856;6.076;2023-03-01T09:37:45;1.20;99.90
37594;DHT22;23441;50.856;6.076;2023-03-01T09:40:17;1.30;99.90
37594;DHT22;23441;50.856;6.076;2023-03-01T09:43:05;1.30;99.90
37594;DHT22;23441;50.856;6.076;2023-03-01T09:45:40;1.30;99.90
37594;DHT22;23441;50.856;6.076;2023-03-01T09:48:18;1.30;99.90
37594;DHT22;23441;50.856;6.076;2023-03-01T09:50:47;1.20;99.90
37594;DHT22;23441;50.856;6.076;2023-03-01T09:53:19;1.40;99.90
37594;DHT22;23441;50.856;6.076;2023-03-01T09:55:54;1.50;99.90
37594;DHT22;23441;50.856;6.076;2023-03-01T10:00:59;1.60;99.90
37594;DHT22;23441;50.856;6.076;2023-03-01T10:03:34;1.60;99.90
37594;DHT22;23441;50.856;6.076;2023-03-01T10:06:29;1.70;99.90
37594;DHT22;23441;50.856;6.076;2023-03-01T10:09:11;1.70;99.90
37594;DHT22;23441;50.856;6.076;2023-03-01T10:11:42;1.80;99.90
37594;DHT22;23441;50.856;6.076;2023-03-01T10:14:30;1.80;99.90
37594;DHT22;23441;50.856;6.076;2023-03-01T10:19:43;2.00;99.90
37594;DHT22;23441;50.856;6.076;2023-03-01T10:22:20;2.10;99.90
37594;DHT22;23441;50.856;6.076;2023-03-01T10:24:54;2.10;99.90
37594;DHT22;23441;50.856;6.076;2023-03-01T10:27:35;2.00;99.90
37594;DHT22;23441;50.856;6.076;2023-03-01T10:32:57;2.20;99.90
37594;DHT22;23441;50.856;6.076;2023-03-01T10:35:29;2.10;99.90
37594;DHT22;23441;50.856;6.076;2023-03-01T10:38:06;2.00;99.90
37594;DHT22;23441;50.856;6.076;2023-03-01T10:40:33;2.00;99.90
37594;DHT22;23441;50.856;6.076;2023-03-01T10:43:04;2.00;99.90
37594;DHT22;23441;50.856;6.076;2023-03-01T10:50:34;2.30;99.90
37594;DHT22;23441;50.856;6.076;2023-03-01T10:53:04;2.40;99.90
37594;DHT22;23441;50.856;6.076;2023-03-01T10:55:37;2.40;99.90
37594;DHT22;23441;50.856;6.076;2023-03-01T10:58:20;2.40;99.90
37594;DHT22;23441;50.856;6.076;2023-03-01T11:03:34;2.60;99.90
37594;DHT22;23441;50.856;6.076;2023-03-01T11:08:47;2.70;99.90
37594;DHT22;23441;50.856;6.076;2023-03-01T11:13:58;2.70;99.90
37594;DHT22;23441;50.856;6.076;2023-03-01T11:16:36;2.80;99.90
37594;DHT22;23441;50.856;6.076;2023-03-01T11:21:37;2.80;99.90
37594;DHT22;23441;50.856;6.076;2023-03-01T11:24:06;2.90;99.90
37594;DHT22;23441;50.856;6.076;2023-03-01T11:26:37;2.90;99.90
37594;DHT22;23441;50.856;6.076;2023-03-01T11:29:10;3.00;99.90
37594;DHT22;23441;50.856;6.076;2023-03-01T11:31:39;3.00;99.90
37594;DHT22;23441;50.856;6.076;2023-03-01T11:34:16;3.10;99.90
37594;DHT22;23441;50.856;6.076;2023-03-01T11:36:54;3.10;99.90
37594;DHT22;23441;50.856;6.076;2023-03-01T11:39:42;3.10;99.90
37594;DHT22;23441;50.856;6.076;2023-03-01T11:44:43;3.60;99.90
37594;DHT22;23441;50.856;6.076;2023-03-01T11:47:20;3.70;99.90
37594;DHT22;23441;50.856;6.076;2023-03-01T11:55:43;4.10;99.90
37594;DHT22;23441;50.856;6.076;2023-03-01T12:11:49;4.20;99.90
37594;DHT22;23441;50.856;6.076;2023-03-01T12:14:27;4.40;99.90
37594;DHT22;23441;50.856;6.076;2023-03-01T12:17:00;4.40;99.90
37594;DHT22;23441;50.856;6.076;2023-03-01T12:22:25;4.60;99.90
37594;DHT22;23441;50.856;6.076;2023-03-01T12:36:48;5.00;99.90
37594;DHT22;23441;50.856;6.076;2023-03-01T12:39:30;5.20;99.90
37594;DHT22;23441;50.856;6.076;2023-03-01T12:50:41;5.30;99.90
37594;DHT22;23441;50.856;6.076;2023-03-01T12:53:35;5.60;99.90
37594;DHT22;23441;50.856;6.076;2023-03-01T12:56:08;5.80;99.90
37594;DHT22;23441;50.856;6.076;2023-03-01T12:59:02;5.70;99.90
37594;DHT22;23441;50.856;6.076;2023-03-01T13:01:49;5.70;99.90
37594;DHT22;23441;50.856;6.076;2023-03-01T13:10:09;5.70;99.90
37594;DHT22;23441;50.856;6.076;2023-03-01T13:17:53;6.30;98.90
37594;DHT22;23441;50.856;6.076;2023-03-01T13:20:23;6.40;99.80
37594;DHT22;23441;50.856;6.076;2023-03-01T13:23:03;6.50;97.40
37594;DHT22;23441;50.856;6.076;2023-03-01T13:25:29;6.40;99.80
37594;DHT22;23441;50.856;6.076;2023-03-01T13:30:59;6.40;99.70
37594;DHT22;23441;50.856;6.076;2023-03-01T13:35:51;6.50;99.60
37594;DHT22;23441;50.856;6.076;2023-03-01T13:38:46;6.50;98.40
37594;DHT22;23441;50.856;6.076;2023-03-01T13:41:31;6.50;98.10
37594;DHT22;23441;50.856;6.076;2023-03-01T13:44:12;6.60;99.60
37594;DHT22;23441;50.856;6.076;2023-03-01T13:46:38;6.60;96.40
37594;DHT22;23441;50.856;6.076;2023-03-01T13:49:05;6.60;97.20
37594;DHT22;23441;50.856;6.076;2023-03-01T13:51:30;6.70;97.50
37594;DHT22;23441;50.856;6.076;2023-03-01T13:53:57;6.70;98.10
37594;DHT22;23441;50.856;6.076;2023-03-01T13:56:27;6.90;97.40
37594;DHT22;23441;50.856;6.076;2023-03-01T13:59:05;6.50;96.20
37594;DHT22;23441;50.856;6.076;2023-03-01T14:01:34;6.50;96.60
37594;DHT22;23441;50.856;6.076;2023-03-01T14:04:16;6.40;96.90
37594;DHT22;23441;50.856;6.076;2023-03-01T14:06:43;6.30;96.90
37594;DHT22;23441;50.856;6.076;2023-03-01T14:09:20;6.40;96.20
37594;DHT22;23441;50.856;6.076;2023-03-01T14:15:01;6.30;97.40
37594;DHT22;23441;50.856;6.076;2023-03-01T14:20:17;6.20;96.50
37594;DHT22;23441;50.856;6.076;2023-03-01T14:22:44;6.30;96.40
37594;DHT22;23441;50.856;6.076;2023-03-01T14:25:24;6.30;96.00
37594;DHT22;23441;50.856;6.076;2023-03-01T14:30:24;6.10;96.70
37594;DHT22;23441;50.856;6.076;2023-03-01T14:32:56;6.20;97.20
37594;DHT22;23441;50.856;6.076;2023-03-01T14:35:25;6.20;97.10
37594;DHT22;23441;50.856;6.076;2023-03-01T14:37:51;6.30;96.50
37594;DHT22;23441;50.856;6.076;2023-03-01T14:40:26;6.20;95.70
37594;DHT22;23441;50.856;6.076;2023-03-01T14:42:54;6.10;96.00
37594;DHT22;23441;50.856;6.076;2023-03-01T14:45:20;6.00;96.00
37594;DHT22;23441;50.856;6.076;2023-03-01T14:47:46;6.00;96.30
37594;DHT22;23441;50.856;6.076;2023-03-01T14:50:21;6.10;97.70
37594;DHT22;23441;50.856;6.076;2023-03-01T14:52:50;6.10;96.60
37594;DHT22;23441;50.856;6.076;2023-03-01T14:55:18;6.10;96.70
37594;DHT22;23441;50.856;6.076;2023-03-01T14:57:47;6.00;95.70
37594;DHT22;23441;50.856;6.076;2023-03-01T15:00:22;5.90;97.10
37594;DHT22;23441;50.856;6.076;2023-03-01T15:02:50;5.90;96.00
37594;DHT22;23441;50.856;6.076;2023-03-01T15:05:21;5.90;96.30
37594;DHT22;23441;50.856;6.076;2023-03-01T15:07:48;5.90;96.60
37594;DHT22;23441;50.856;6.076;2023-03-01T15:10:24;6.00;96.90
37594;DHT22;23441;50.856;6.076;2023-03-01T15:12:50;6.00;95.90
37594;DHT22;23441;50.856;6.076;2023-03-01T15:15:32;5.90;95.70
37594;DHT22;23441;50.856;6.076;2023-03-01T15:18:04;5.90;96.90
37594;DHT22;23441;50.856;6.076;2023-03-01T15:20:30;5.80;95.90
37594;DHT22;23441;50.856;6.076;2023-03-01T15:23:01;5.70;96.00
37594;DHT22;23441;50.856;6.076;2023-03-01T15:25:28;5.70;96.10
37594;DHT22;23441;50.856;6.076;2023-03-01T15:27:56;5.80;95.70
37594;DHT22;23441;50.856;6.076;2023-03-01T15:30:27;5.70;95.70
37594;DHT22;23441;50.856;6.076;2023-03-01T15:33:32;5.60;95.50
37594;DHT22;23441;50.856;6.076;2023-03-01T15:39:00;5.60;96.20
37594;DHT22;23441;50.856;6.076;2023-03-01T15:41:31;5.60;95.90
37594;DHT22;23441;50.856;6.076;2023-03-01T15:43:59;5.60;95.90
37594;DHT22;23441;50.856;6.076;2023-03-01T15:46:35;5.50;96.00
37594;DHT22;23441;50.856;6.076;2023-03-01T15:49:34;5.50;96.40
37594;DHT22;23441;50.856;6.076;2023-03-01T15:52:01;5.60;96.50
37594;DHT22;23441;50.856;6.076;2023-03-01T15:54:28;5.50;96.50
37594;DHT22;23441;50.856;6.076;2023-03-01T15:56:54;5.50;96.80
37594;DHT22;23441;50.856;6.076;2023-03-01T15:59:20;5.50;96.40
37594;DHT22;23441;50.856;6.076;2023-03-01T16:01:48;5.50;96.00
37594;DHT22;23441;50.856;6.076;2023-03-01T16:04:16;5.40;96.60
37594;DHT22;23441;50.856;6.076;2023-03-01T16:06:50;5.40;96.30
37594;DHT22;23441;50.856;6.076;2023-03-01T16:09:24;5.40;96.20
37594;DHT22;23441;50.856;6.076;2023-03-01T16:11:51;5.40;95.90
37594;DHT22;23441;50.856;6.076;2023-03-01T16:14:18;5.40;96.40
37594;DHT22;23441;50.856;6.076;2023-03-01T16:16:45;5.30;96.10
37594;DHT22;23441;50.856;6.076;2023-03-01T16:19:11;5.30;96.20
37594;DHT22;23441;50.856;6.076;2023-03-01T16:21:37;5.30;96.40
37594;DHT22;23441;50.856;6.076;2023-03-01T16:24:03;5.30;96.50
37594;DHT22;23441;50.856;6.076;2023-03-01T16:26:29;5.20;96.90
37594;DHT22;23441;50.856;6.076;2023-03-01T16:28:56;5.20;96.70
37594;DHT22;23441;50.856;6.076;2023-03-01T16:31:23;5.20;96.80
37594;DHT22;23441;50.856;6.076;2023-03-01T16:33:53;5.10;96.90
37594;DHT22;23441;50.856;6.076;2023-03-01T16:36:20;5.10;97.20
37594;DHT22;23441;50.856;6.076;2023-03-01T16:38:49;5.10;97.20
37594;DHT22;23441;50.856;6.076;2023-03-01T16:41:16;5.00;97.10
37594;DHT22;23441;50.856;6.076;2023-03-01T16:43:43;5.00;97.50
37594;DHT22;23441;50.856;6.076;2023-03-01T16:46:22;4.90;97.50
37594;DHT22;23441;50.856;6.076;2023-03-01T16:48:48;4.90;97.70
37594;DHT22;23441;50.856;6.076;2023-03-01T16:51:14;4.90;97.80
37594;DHT22;23441;50.856;6.076;2023-03-01T16:53:40;4.80;98.10
37594;DHT22;23441;50.856;6.076;2023-03-01T16:56:08;4.70;98.40
37594;DHT22;23441;50.856;6.076;2023-03-01T16:58:36;4.60;99.00
37594;DHT22;23441;50.856;6.076;2023-03-01T17:01:16;4.70;98.60
37594;DHT22;23441;50.856;6.076;2023-03-01T17:03:42;4.50;98.90
37594;DHT22;23441;50.856;6.076;2023-03-01T17:06:11;4.50;98.90
37594;DHT22;23441;50.856;6.076;2023-03-01T17:08:37;4.50;98.90
37594;DHT22;23441;50.856;6.076;2023-03-01T17:11:08;4.40;99.10
37594;DHT22;23441;50.856;6.076;2023-03-01T17:13:35;4.40;99.10
37594;DHT22;23441;50.856;6.076;2023-03-01T17:16:06;4.30;99.20
37594;DHT22;23441;50.856;6.076;2023-03-01T17:18:32;4.20;99.60
37594;DHT22;23441;50.856;6.076;2023-03-01T17:20:58;4.10;99.70
37594;DHT22;23441;50.856;6.076;2023-03-01T17:23:25;4.10;99.90
37594;DHT22;23441;50.856;6.076;2023-03-01T17:25:51;4.00;99.90
37594;DHT22;23441;50.856;6.076;2023-03-01T17:28:18;3.90;99.90
37594;DHT22;23441;50.856;6.076;2023-03-01T17:30:44;3.90;99.90
37594;DHT22;23441;50.856;6.076;2023-03-01T17:33:12;3.90;99.90
37594;DHT22;23441;50.856;6.076;2023-03-01T17:35:38;3.80;99.90
37594;DHT22;23441;50.856;6.076;2023-03-01T17:38:05;3.80;99.90
37594;DHT22;23441;50.856;6.076;2023-03-01T17:40:31;3.70;99.90